PILOTS ONLINE: 320    ATC ONLINE: 38

KCWA

Central Wisconsin Airport

Location

IATA CWA
City Mosinee
Country  United States
Latitude 44° 46' 39" N
Longitude 89° 40' 0" W
Elevation 1277 ft
Type Medium Airport

Map

Weather

METAR
2014/08/28 00:45
KCWA 280045Z 32003KT 10SM SKC 18/12 A3015
TAF
2014/08/27 18:36
TAF KCWA 271733Z 2718/2818 VRB03KT P6SM BKN035 
     FM272200 VRB03KT P6SM SCT035 BKN100 
     FM280000 VRB03KT P6SM SCT250 
     FM280700 VRB03KT 6SM BR SCT250 
      TEMPO 2808/2812 3SM BR 
     FM281400 15006KT P6SM SCT060 BKN200

Runways

08/26 7645 ft / 150 ft
17/35 6501 ft / 150 ft

Outbound flights

Callsign Flying to Pilot ATD/STD ETA Aircraft

Inbound flights

Callsign Flying from Pilot ATD ETA Aircraft